Time;durP1;ratioP1;P1;durP2;ratioP2;P2;SDS_P1;SDS_P2;PMS_P1;PMS_P2;Temp;Humidity;BMP_temperature;BMP_pressure;BME280_temperature;BME280_humidity;BME280_pressure;Samples;Min_cycle;Max_cycle;Signal;HPM_P1;HPM_P2
2021/04/07 00:00:38;;;;;;;4.90;1.08;;;25.20;84.50;;;;;;5064217;28;20079;-72
2021/04/07 00:03:07;;;;;;;5.07;0.95;;;25.00;86.00;;;;;;5065089;28;20107;-69
2021/04/07 00:05:40;;;;;;;6.88;0.70;;;24.80;87.10;;;;;;5067322;28;20028;-69
2021/04/07 00:08:08;;;;;;;7.47;1.08;;;24.60;87.00;;;;;;5070633;28;20466;-68
2021/04/07 00:10:41;;;;;;;3.60;1.05;;;24.50;88.30;;;;;;5064821;28;20040;-68
2021/04/07 00:13:10;;;;;;;4.82;1.23;;;24.30;90.30;;;;;;5067979;28;20124;-70
2021/04/07 00:15:39;;;;;;;4.72;1.30;;;24.20;90.70;;;;;;5068361;28;20029;-70
2021/04/07 00:18:07;;;;;;;6.53;1.77;;;23.90;91.20;;;;;;5065816;28;20097;-69
2021/04/07 00:20:35;;;;;;;5.65;1.30;;;23.80;92.40;;;;;;5069463;28;20040;-69
2021/04/07 00:23:03;;;;;;;4.03;1.20;;;23.60;92.70;;;;;;5071871;28;20020;-70
2021/04/07 00:25:31;;;;;;;7.65;2.25;;;23.30;93.60;;;;;;5065376;28;20031;-70
2021/04/07 00:28:02;;;;;;;5.30;1.45;;;23.00;94.30;;;;;;5065822;28;20455;-70
2021/04/07 00:30:33;;;;;;;8.45;1.75;;;22.90;94.90;;;;;;5056939;28;20032;-69
2021/04/07 00:33:01;;;;;;;4.95;1.20;;;22.80;95.30;;;;;;5066458;28;20339;-70
2021/04/07 00:35:29;;;;;;;7.55;1.55;;;22.70;95.50;;;;;;5065275;28;20114;-69
2021/04/07 00:37:57;;;;;;;4.22;1.55;;;22.80;95.60;;;;;;5062153;28;20039;-69
2021/04/07 00:40:25;;;;;;;7.10;2.47;;;22.90;95.80;;;;;;5070879;28;20025;-69
2021/04/07 00:42:54;;;;;;;9.65;1.98;;;22.90;95.70;;;;;;5074407;28;20032;-69
2021/04/07 00:45:23;;;;;;;6.90;2.35;;;23.10;95.80;;;;;;5073366;28;20020;-68
2021/04/07 00:47:54;;;;;;;7.75;1.98;;;23.20;95.40;;;;;;5065516;28;20431;-70
2021/04/07 00:50:24;;;;;;;4.28;1.13;;;23.60;94.80;;;;;;5068240;28;20048;-68
2021/04/07 00:52:52;;;;;;;8.07;1.30;;;23.70;94.30;;;;;;5070753;28;20064;-69
2021/04/07 00:55:25;;;;;;;7.45;1.20;;;23.60;94.80;;;;;;5067971;28;20020;-68
2021/04/07 00:57:54;;;;;;;4.15;1.20;;;23.40;94.70;;;;;;5070795;28;20061;-69
2021/04/07 01:00:23;;;;;;;3.60;0.90;;;23.30;94.40;;;;;;5067797;28;20069;-68
2021/04/07 01:02:55;;;;;;;4.90;1.73;;;23.30;95.10;;;;;;5072591;28;20048;-68
2021/04/07 01:05:24;;;;;;;4.93;0.75;;;23.40;94.50;;;;;;5072093;28;20036;-69
2021/04/07 01:07:52;;;;;;;4.72;1.10;;;23.60;93.00;;;;;;5079071;28;20047;-69
2021/04/07 01:10:21;;;;;;;3.88;1.38;;;23.80;92.50;;;;;;5078727;28;20032;-68
2021/04/07 01:12:49;;;;;;;2.90;0.93;;;23.80;92.40;;;;;;5067490;28;20736;-67
2021/04/07 01:15:17;;;;;;;2.08;0.80;;;23.60;92.90;;;;;;5081136;28;20119;-69
2021/04/07 01:17:45;;;;;;;3.53;0.90;;;23.50;92.90;;;;;;5069174;28;20075;-68
2021/04/07 01:20:16;;;;;;;2.95;0.88;;;23.40;92.80;;;;;;5062877;28;20036;-69
2021/04/07 01:22:50;;;;;;;2.28;0.70;;;23.40;93.20;;;;;;5075473;28;20083;-67
2021/04/07 01:25:18;;;;;;;4.63;1.02;;;23.40;92.60;;;;;;5068433;28;20174;-67
2021/04/07 01:27:46;;;;;;;3.92;0.63;;;23.50;92.60;;;;;;5077016;28;20041;-71
2021/04/07 01:30:16;;;;;;;2.90;0.60;;;23.70;92.10;;;;;;5075802;28;20032;-69
2021/04/07 01:32:44;;;;;;;3.95;0.85;;;23.70;91.80;;;;;;5068250;28;20101;-69
2021/04/07 01:35:13;;;;;;;3.42;1.13;;;23.80;91.70;;;;;;5068117;28;20080;-67
2021/04/07 01:37:40;;;;;;;6.07;1.10;;;23.80;91.60;;;;;;5072589;28;20150;-69
2021/04/07 01:40:11;;;;;;;4.80;0.77;;;23.80;91.70;;;;;;5074338;28;20122;-70
2021/04/07 01:42:47;;;;;;;5.00;1.00;;;23.80;91.60;;;;;;5074567;28;20012;-68
2021/04/07 01:45:14;;;;;;;;;;;23.80;91.30;;;;;;5074347;28;20042;-70
2021/04/07 01:47:43;;;;;;;2.95;0.80;;;23.60;91.10;;;;;;5072735;28;20393;-68
2021/04/07 01:50:13;;;;;;;2.80;0.80;;;23.60;91.10;;;;;;5074583;28;20033;-70
2021/04/07 01:52:41;;;;;;;6.07;0.70;;;23.50;91.00;;;;;;5076535;28;20749;-69
2021/04/07 01:55:09;;;;;;;3.65;0.77;;;23.50;91.10;;;;;;5076402;28;20118;-70
2021/04/07 01:57:37;;;;;;;2.78;0.70;;;23.40;91.40;;;;;;5073879;28;20043;-69
2021/04/07 02:00:14;;;;;;;2.03;0.80;;;23.30;91.80;;;;;;5073902;28;20054;-70
2021/04/07 02:02:42;;;;;;;4.38;1.02;;;23.20;92.10;;;;;;5078115;28;20039;-69
2021/04/07 02:05:10;;;;;;;3.13;0.85;;;23.30;92.70;;;;;;5078449;28;20029;-70
2021/04/07 02:07:37;;;;;;;4.18;0.85;;;23.30;92.80;;;;;;5070059;28;20031;-69
2021/04/07 02:10:09;;;;;;;1.42;0.50;;;23.40;92.60;;;;;;5072093;28;20470;-70
2021/04/07 02:12:37;;;;;;;4.78;0.80;;;23.40;92.50;;;;;;5066709;28;20032;-69
2021/04/07 02:15:12;;;;;;;1.30;0.63;;;23.50;92.50;;;;;;5072458;28;20039;-71
2021/04/07 02:17:40;;;;;;;4.78;0.98;;;23.60;93.10;;;;;;5075311;28;20031;-71
2021/04/07 02:20:10;;;;;;;3.13;0.90;;;23.60;92.80;;;;;;5071692;28;20025;-69
2021/04/07 02:22:39;;;;;;;3.97;0.88;;;23.60;92.50;;;;;;5066024;28;20347;-70
2021/04/07 02:25:08;;;;;;;4.05;0.68;;;23.70;92.10;;;;;;5069791;28;20120;-71
2021/04/07 02:27:37;;;;;;;3.85;0.60;;;23.90;92.20;;;;;;5077794;28;20119;-71
2021/04/07 02:30:12;;;;;;;1.60;0.38;;;24.00;91.80;;;;;;5075157;28;20021;-71
2021/04/07 02:32:40;;;;;;;3.43;0.70;;;24.20;91.60;;;;;;5070177;28;20028;-71
2021/04/07 02:35:08;;;;;;;2.90;0.43;;;24.20;91.70;;;;;;5068695;28;20056;-69
2021/04/07 02:37:36;;;;;;;3.03;0.50;;;24.20;91.10;;;;;;5074549;28;20324;-69
2021/04/07 02:40:04;;;;;;;3.50;0.60;;;24.30;91.50;;;;;;5069061;28;20056;-70
2021/04/07 02:42:32;;;;;;;2.97;0.95;;;24.20;90.80;;;;;;5075571;28;20059;-70
2021/04/07 02:44:59;;;;;;;5.43;0.73;;;24.40;90.60;;;;;;5066877;28;20024;-70
2021/04/07 02:47:27;;;;;;;2.10;0.50;;;24.60;89.90;;;;;;5065289;28;20024;-70
2021/04/07 02:49:54;;;;;;;4.03;0.80;;;24.60;89.50;;;;;;5070357;28;20032;-68
2021/04/07 02:52:22;;;;;;;2.03;0.47;;;24.70;89.30;;;;;;5067066;28;20496;-70
2021/04/07 02:54:51;;;;;;;3.60;0.50;;;24.70;88.30;;;;;;5071950;28;20142;-68
2021/04/07 02:57:19;;;;;;;3.63;1.00;;;24.90;88.70;;;;;;5069396;28;20021;-68
2021/04/07 02:59:46;;;;;;;1.02;0.40;;;25.10;86.70;;;;;;5066883;28;20120;-68
2021/04/07 03:02:14;;;;;;;3.45;0.65;;;25.20;85.30;;;;;;5069151;28;20042;-69
2021/04/07 03:04:41;;;;;;;2.60;1.45;;;25.30;85.20;;;;;;5070533;28;20024;-70
2021/04/07 03:07:08;;;;;;;3.60;1.17;;;25.40;84.40;;;;;;5078008;28;20063;-70
2021/04/07 03:09:36;;;;;;;3.28;0.47;;;25.80;83.60;;;;;;5067080;28;20025;-70
2021/04/07 03:12:03;;;;;;;5.68;1.30;;;25.90;83.20;;;;;;5077883;28;20055;-69
2021/04/07 03:14:31;;;;;;;2.00;0.77;;;25.90;83.80;;;;;;5072822;28;20153;-69
2021/04/07 03:17:01;;;;;;;1.90;0.50;;;26.00;85.10;;;;;;5076465;28;20024;-69
2021/04/07 03:19:29;;;;;;;5.82;1.05;;;26.50;81.90;;;;;;5067948;28;20432;-70
2021/04/07 03:21:56;;;;;;;1.90;0.45;;;27.00;80.80;;;;;;5080047;28;20036;-69
2021/04/07 03:24:23;;;;;;;2.42;0.55;;;26.60;80.30;;;;;;5067747;28;20028;-70
2021/04/07 03:26:51;;;;;;;2.95;0.55;;;26.10;82.20;;;;;;5069732;28;20584;-69
2021/04/07 03:29:18;;;;;;;2.40;0.40;;;25.70;82.90;;;;;;5074254;28;20028;-70
2021/04/07 03:31:46;;;;;;;3.30;1.35;;;25.40;84.60;;;;;;5069618;28;20024;-71
2021/04/07 03:34:13;;;;;;;5.82;0.57;;;25.40;85.30;;;;;;5064303;28;20498;-68
2021/04/07 03:36:40;;;;;;;2.15;0.40;;;25.50;85.10;;;;;;5068026;28;20032;-68
2021/04/07 03:39:08;;;;;;;4.15;0.60;;;25.50;85.10;;;;;;5070133;28;20081;-69
2021/04/07 03:41:35;;;;;;;5.03;1.15;;;25.30;85.70;;;;;;5071150;28;20389;-70
2021/04/07 03:44:02;;;;;;;2.15;0.80;;;25.00;86.30;;;;;;5075784;28;20351;-68
2021/04/07 03:46:30;;;;;;;4.05;0.77;;;25.00;86.00;;;;;;5075758;28;20046;-71
2021/04/07 03:48:57;;;;;;;2.30;0.57;;;25.20;85.80;;;;;;5077141;28;21019;-70
2021/04/07 03:51:27;;;;;;;1.65;0.40;;;25.30;86.40;;;;;;5065102;28;20036;-68
2021/04/07 03:53:55;;;;;;;4.72;1.15;;;25.30;85.90;;;;;;5070200;28;20426;-67
2021/04/07 03:56:23;;;;;;;0.98;0.30;;;25.30;84.70;;;;;;5071463;28;20028;-70
2021/04/07 03:58:50;;;;;;;2.97;0.82;;;25.30;83.00;;;;;;5073368;28;20038;-68
2021/04/07 04:01:18;;;;;;;1.35;0.30;;;25.50;82.90;;;;;;5074267;28;20455;-68
2021/04/07 04:03:45;;;;;;;3.63;0.30;;;25.50;82.10;;;;;;5073653;28;20024;-68
2021/04/07 04:06:12;;;;;;;3.08;0.50;;;25.40;82.30;;;;;;5071209;28;20471;-69
2021/04/07 04:08:40;;;;;;;2.25;0.47;;;25.40;81.80;;;;;;5080999;28;20036;-69
2021/04/07 04:11:07;;;;;;;1.60;0.35;;;25.30;82.90;;;;;;5070087;28;20446;-70
2021/04/07 04:13:35;;;;;;;2.85;0.50;;;25.10;83.60;;;;;;5076079;28;20028;-68
2021/04/07 04:16:02;;;;;;;1.85;0.30;;;25.20;83.60;;;;;;5065760;28;20024;-69
2021/04/07 04:18:29;;;;;;;1.88;0.30;;;25.20;85.00;;;;;;5070520;28;20024;-69
2021/04/07 04:20:57;;;;;;;3.28;0.40;;;25.30;84.30;;;;;;5062444;28;20032;-68
2021/04/07 04:23:24;;;;;;;1.45;0.30;;;25.20;83.80;;;;;;5063776;28;20340;-69
2021/04/07 04:25:52;;;;;;;3.97;0.35;;;25.30;83.80;;;;;;5071814;28;20051;-69
2021/04/07 04:28:19;;;;;;;2.92;0.50;;;25.30;82.70;;;;;;5077295;28;20184;-69
2021/04/07 04:30:46;;;;;;;3.33;0.35;;;25.30;82.40;;;;;;5067939;28;20108;-70
2021/04/07 04:33:14;;;;;;;1.08;0.25;;;25.40;82.00;;;;;;5073251;28;20086;-69
2021/04/07 04:35:41;;;;;;;2.03;0.70;;;25.40;81.80;;;;;;5072870;28;20043;-71
2021/04/07 04:38:10;;;;;;;2.55;0.30;;;25.40;82.30;;;;;;5072431;28;20038;-70
2021/04/07 04:40:37;;;;;;;2.25;0.40;;;25.50;82.00;;;;;;5070373;28;20043;-69
2021/04/07 04:43:05;;;;;;;2.95;0.43;;;25.60;80.60;;;;;;5068958;28;21241;-69
2021/04/07 04:45:35;;;;;;;0.95;0.40;;;25.50;80.60;;;;;;5067843;28;20040;-70
2021/04/07 04:48:02;;;;;;;5.00;0.32;;;25.60;81.70;;;;;;5068286;28;20135;-70
2021/04/07 04:50:30;;;;;;;1.67;0.38;;;25.60;81.30;;;;;;5073757;28;20148;-69
2021/04/07 04:52:57;;;;;;;4.03;0.68;;;26.20;80.80;;;;;;5076043;28;20052;-69
2021/04/07 04:55:25;;;;;;;2.88;0.60;;;26.70;79.30;;;;;;5064702;28;20077;-68
2021/04/07 04:57:54;;;;;;;2.00;0.50;;;26.40;78.90;;;;;;5068937;28;20029;-68
2021/04/07 05:00:21;;;;;;;1.92;0.47;;;26.20;80.90;;;;;;5068837;28;20112;-68
2021/04/07 05:02:49;;;;;;;3.50;0.32;;;26.00;80.00;;;;;;5071581;28;20486;-69
2021/04/07 05:05:17;;;;;;;2.65;0.50;;;25.70;81.00;;;;;;5070213;28;20372;-69
2021/04/07 05:07:44;;;;;;;1.67;0.30;;;25.70;80.30;;;;;;5077803;28;20044;-70
2021/04/07 05:10:12;;;;;;;3.40;0.65;;;26.00;78.00;;;;;;5074158;28;20490;-69
2021/04/07 05:12:39;;;;;;;2.83;0.40;;;26.30;76.70;;;;;;5080824;28;20374;-68
2021/04/07 05:15:07;;;;;;;3.78;0.63;;;26.70;75.70;;;;;;5066570;28;20126;-69
2021/04/07 05:17:38;;;;;;;1.73;0.30;;;26.60;74.50;;;;;;5069037;28;20024;-70
2021/04/07 05:20:06;;;;;;;1.80;0.20;;;26.40;74.60;;;;;;5067796;28;20132;-69
2021/04/07 05:22:35;;;;;;;2.78;0.70;;;26.10;75.10;;;;;;5068570;28;20080;-70
2021/04/07 05:25:03;;;;;;;1.48;0.40;;;25.80;75.00;;;;;;5066709;28;20071;-70
2021/04/07 05:27:31;;;;;;;2.97;0.30;;;25.60;76.00;;;;;;5072703;28;20105;-68
2021/04/07 05:29:58;;;;;;;5.32;0.50;;;25.50;76.80;;;;;;5067904;28;20031;-69
2021/04/07 05:32:25;;;;;;;2.47;0.77;;;25.50;77.40;;;;;;5069103;28;20035;-70
2021/04/07 05:34:53;;;;;;;3.20;0.30;;;25.50;78.00;;;;;;5071577;28;20079;-69
2021/04/07 05:37:20;;;;;;;3.83;0.82;;;25.50;78.30;;;;;;5067105;28;20016;-68
2021/04/07 05:39:48;;;;;;;1.60;0.20;;;25.80;78.80;;;;;;5067963;28;20388;-68
2021/04/07 05:42:15;;;;;;;2.40;0.50;;;25.70;78.20;;;;;;5067829;28;20016;-69
2021/04/07 05:44:42;;;;;;;1.85;0.40;;;25.70;79.50;;;;;;5067756;28;20024;-69
2021/04/07 05:47:10;;;;;;;3.55;0.60;;;25.60;80.70;;;;;;5073517;28;20386;-69
2021/04/07 05:49:37;;;;;;;4.55;0.40;;;25.70;80.90;;;;;;5073098;28;20056;-70
2021/04/07 05:52:05;;;;;;;3.28;0.43;;;25.70;82.20;;;;;;5078086;28;20032;-69
2021/04/07 05:54:32;;;;;;;2.05;0.45;;;25.70;82.00;;;;;;5070935;28;20139;-70
2021/04/07 05:56:59;;;;;;;3.17;0.47;;;25.60;81.70;;;;;;5072559;28;20060;-68
2021/04/07 05:59:27;;;;;;;2.58;0.80;;;25.70;82.50;;;;;;5065222;28;20031;-67
2021/04/07 06:01:54;;;;;;;1.83;0.38;;;25.60;82.80;;;;;;5072797;28;20050;-68
2021/04/07 06:04:22;;;;;;;2.97;0.40;;;25.60;81.60;;;;;;5071263;28;20498;-69
2021/04/07 06:06:49;;;;;;;7.15;0.55;;;25.70;80.80;;;;;;5069911;28;20032;-70
2021/04/07 06:09:17;;;;;;;6.10;0.95;;;25.60;80.60;;;;;;5068331;28;21403;-68
2021/04/07 06:11:44;;;;;;;2.00;0.35;;;25.60;80.90;;;;;;5076240;28;20064;-68
2021/04/07 06:14:12;;;;;;;1.88;0.43;;;25.60;80.70;;;;;;5076858;28;20130;-69
2021/04/07 06:16:42;;;;;;;1.70;0.32;;;25.50;80.60;;;;;;5077138;28;20036;-68
2021/04/07 06:19:11;;;;;;;3.30;0.60;;;25.50;80.60;;;;;;5076586;28;20024;-68
2021/04/07 06:21:38;;;;;;;2.00;0.82;;;25.40;80.70;;;;;;5074759;28;20026;-68
2021/04/07 06:24:06;;;;;;;2.08;0.30;;;25.30;81.60;;;;;;5074696;28;21722;-68
2021/04/07 06:26:37;;;;;;;2.28;0.35;;;25.20;81.90;;;;;;5072259;28;20099;-68
2021/04/07 06:29:04;;;;;;;6.28;0.75;;;25.00;79.40;;;;;;5078898;28;20031;-68
2021/04/07 06:31:31;;;;;;;5.00;0.80;;;24.70;79.70;;;;;;5068569;28;20020;-69
2021/04/07 06:33:59;;;;;;;8.90;1.90;;;24.50;82.20;;;;;;5070990;28;20032;-69
2021/04/07 06:36:26;;;;;;;2.75;0.80;;;23.60;88.50;;;;;;5074070;28;20016;-72
2021/04/07 06:38:54;;;;;;;3.50;0.60;;;22.60;90.70;;;;;;5078795;28;20347;-72
2021/04/07 06:41:21;;;;;;;2.20;0.38;;;22.10;92.30;;;;;;5075151;28;20459;-70
2021/04/07 06:43:51;;;;;;;1.95;0.52;;;21.80;93.20;;;;;;5069674;28;20029;-71
2021/04/07 06:46:24;;;;;;;2.45;0.60;;;21.60;93.90;;;;;;5069562;28;20039;-72
2021/04/07 06:48:54;;;;;;;1.73;0.55;;;21.40;94.80;;;;;;5067132;28;20130;-71
2021/04/07 06:51:22;;;;;;;4.60;0.70;;;21.30;94.60;;;;;;5074503;28;20044;-72
2021/04/07 06:53:51;;;;;;;4.13;0.80;;;21.30;95.00;;;;;;5077120;28;20067;-71
2021/04/07 06:56:20;;;;;;;3.55;0.70;;;21.20;95.10;;;;;;5074557;28;20016;-70
2021/04/07 06:58:47;;;;;;;3.45;0.95;;;21.30;95.40;;;;;;5076122;28;20025;-71
2021/04/07 07:01:15;;;;;;;2.50;0.85;;;21.50;95.70;;;;;;5074424;28;20039;-73
2021/04/07 07:03:42;;;;;;;4.97;1.00;;;21.60;95.30;;;;;;5068610;28;20394;-72
2021/04/07 07:06:10;;;;;;;2.40;0.88;;;21.80;95.50;;;;;;5073402;28;20020;-72
2021/04/07 07:08:38;;;;;;;3.22;1.35;;;21.90;95.60;;;;;;5082338;28;20048;-72
2021/04/07 07:11:16;;;;;;;6.43;1.52;;;22.00;95.50;;;;;;5069200;28;20032;-70
2021/04/07 07:13:44;;;;;;;5.22;1.73;;;22.10;95.50;;;;;;5082139;28;20530;-70
2021/04/07 07:16:12;;;;;;;7.88;1.23;;;22.20;95.10;;;;;;5069679;28;20037;-71
2021/04/07 07:18:44;;;;;;;5.90;1.15;;;22.30;95.20;;;;;;5078268;28;20059;-72
2021/04/07 07:21:21;;;;;;;3.63;0.60;;;22.30;95.50;;;;;;5072732;28;20032;-72
2021/04/07 07:23:49;;;;;;;2.67;0.50;;;22.30;95.20;;;;;;5070920;28;20025;-72
2021/04/07 07:26:19;;;;;;;3.47;0.65;;;22.20;94.30;;;;;;5066990;28;20031;-71
2021/04/07 07:28:53;;;;;;;2.78;0.60;;;22.00;94.50;;;;;;5070123;28;20012;-71
2021/04/07 07:31:30;;;;;;;2.55;0.50;;;21.90;95.10;;;;;;5064485;28;20371;-70
2021/04/07 07:33:59;;;;;;;3.72;0.43;;;21.80;95.30;;;;;;5062185;28;20480;-70
2021/04/07 07:36:29;;;;;;;4.95;0.73;;;21.80;95.50;;;;;;5065161;28;20033;-70
2021/04/07 07:38:59;;;;;;;5.35;0.95;;;21.80;95.80;;;;;;5064049;28;20032;-71
2021/04/07 07:41:36;;;;;;;5.50;0.95;;;21.80;96.10;;;;;;5076600;28;20020;-73
2021/04/07 07:44:04;;;;;;;2.78;0.73;;;21.70;96.00;;;;;;5076689;28;20025;-71
2021/04/07 07:46:35;;;;;;;4.38;1.20;;;21.70;96.20;;;;;;5073760;28;20223;-72
2021/04/07 07:49:17;;;;;;;3.33;0.77;;;21.60;96.50;;;;;;5070641;28;20123;-70
2021/04/07 07:51:49;;;;;;;3.83;0.95;;;21.60;96.80;;;;;;5070354;28;20031;-72
2021/04/07 07:54:19;;;;;;;5.55;0.73;;;21.60;96.80;;;;;;5062575;28;20040;-71
2021/04/07 07:56:47;;;;;;;4.10;1.17;;;21.60;97.00;;;;;;5068565;28;20020;-69
2021/04/07 07:59:35;;;;;;;1.90;0.60;;;21.60;97.10;;;;;;5062644;28;20459;-71
2021/04/07 08:02:16;;;;;;;3.95;0.80;;;21.60;97.20;;;;;;5073128;28;20650;-71
2021/04/07 08:04:49;;;;;;;2.45;0.50;;;21.60;97.20;;;;;;5071822;28;20043;-71
2021/04/07 08:07:17;;;;;;;6.43;1.02;;;21.60;97.40;;;;;;5065466;28;20028;-72
2021/04/07 08:09:44;;;;;;;5.13;2.03;;;21.50;97.40;;;;;;5063597;28;20024;-70
2021/04/07 08:12:13;;;;;;;7.18;1.73;;;21.60;97.50;;;;;;5070213;28;20040;-71
2021/04/07 08:14:41;;;;;;;4.68;1.13;;;21.50;97.30;;;;;;5070880;28;20044;-72
2021/04/07 08:17:09;;;;;;;2.45;0.90;;;21.50;97.40;;;;;;5078261;28;20036;-70
2021/04/07 08:19:37;;;;;;;2.95;1.00;;;21.50;97.40;;;;;;5067758;28;20059;-73
2021/04/07 08:22:08;;;;;;;6.32;1.27;;;21.60;97.60;;;;;;5073753;28;20036;-71
2021/04/07 08:24:36;;;;;;;3.38;0.80;;;21.50;97.60;;;;;;5068452;28;20024;-70
2021/04/07 08:27:04;;;;;;;1.85;0.75;;;21.50;97.70;;;;;;5073262;28;20032;-70
2021/04/07 08:29:32;;;;;;;3.97;1.40;;;21.40;97.80;;;;;;5073082;28;20028;-71
2021/04/07 08:31:59;;;;;;;3.78;1.30;;;21.50;97.90;;;;;;5077645;28;20500;-72
2021/04/07 08:34:27;;;;;;;2.72;1.30;;;21.50;98.00;;;;;;5079348;28;20082;-69
2021/04/07 08:36:54;;;;;;;6.55;2.88;;;21.40;98.00;;;;;;5079938;28;20024;-68
2021/04/07 08:39:24;;;;;;;6.07;2.08;;;21.50;98.10;;;;;;5074130;28;20028;-69
2021/04/07 08:41:51;;;;;;;5.47;1.38;;;21.50;98.10;;;;;;5075974;28;20108;-69
2021/04/07 08:44:20;;;;;;;4.13;0.90;;;21.50;98.10;;;;;;5080367;28;20079;-69
2021/04/07 08:46:54;;;;;;;6.97;2.90;;;21.50;98.10;;;;;;5072497;28;20413;-69
2021/04/07 08:49:42;;;;;;;7.88;2.50;;;21.50;98.00;;;;;;5065778;28;20049;-69
2021/04/07 08:52:22;;;;;;;5.07;1.60;;;21.50;97.90;;;;;;5080604;28;20032;-70
2021/04/07 08:54:58;;;;;;;4.80;0.90;;;21.40;97.80;;;;;;5072135;28;20040;-71
2021/04/07 08:57:32;;;;;;;4.93;0.90;;;21.40;97.80;;;;;;5076231;28;20057;-69
2021/04/07 09:00:15;;;;;;;5.25;0.80;;;21.40;98.00;;;;;;5077943;28;20052;-71
2021/04/07 09:03:08;;;;;;;4.47;0.82;;;21.40;97.90;;;;;;5081057;28;20032;-69
2021/04/07 09:05:40;;;;;;;5.82;1.75;;;21.40;98.00;;;;;;5077211;28;20028;-68
2021/04/07 09:08:08;;;;;;;5.70;1.73;;;21.40;98.00;;;;;;5080023;28;20108;-69
2021/04/07 09:10:47;;;;;;;5.78;1.58;;;21.50;98.20;;;;;;5068767;28;20394;-69
2021/04/07 09:13:20;;;;;;;4.30;2.15;;;21.40;98.10;;;;;;5075592;28;20378;-69
2021/04/07 09:15:55;;;;;;;4.85;1.42;;;21.40;97.90;;;;;;5069762;28;20197;-69
2021/04/07 09:18:35;;;;;;;4.88;1.75;;;21.30;98.00;;;;;;5074676;28;20528;-70
2021/04/07 09:21:04;;;;;;;5.00;1.40;;;21.30;98.20;;;;;;5065069;28;20401;-71
2021/04/07 09:23:34;;;;;;;5.95;1.65;;;21.40;98.40;;;;;;5079372;28;20031;-69
2021/04/07 09:26:13;;;;;;;4.95;1.25;;;21.40;98.30;;;;;;5071429;28;20114;-69
2021/04/07 09:28:46;;;;;;;11.70;4.30;;;21.50;98.30;;;;;;5079265;28;20411;-69
2021/04/07 09:31:23;;;;;;;7.32;3.60;;;21.50;98.30;;;;;;5068938;28;20053;-68
2021/04/07 09:33:53;;;;;;;4.70;2.42;;;21.40;98.40;;;;;;5079478;28;20039;-70
2021/04/07 09:36:33;;;;;;;7.55;1.70;;;21.40;98.20;;;;;;5072484;28;20115;-69
2021/04/07 09:39:23;;;;;;;6.10;1.42;;;21.30;98.30;;;;;;5074020;28;20027;-70
2021/04/07 09:41:51;;;;;;;10.00;1.38;;;21.30;98.30;;;;;;5083420;28;20037;-70
2021/04/07 09:44:19;;;;;;;3.20;0.60;;;21.30;98.50;;;;;;5068583;28;20135;-69
2021/04/07 09:46:59;;;;;;;2.28;0.70;;;21.30;98.50;;;;;;5064412;28;20328;-70
2021/04/07 09:49:28;;;;;;;2.75;0.95;;;21.30;98.50;;;;;;5067749;28;20049;-70
2021/04/07 09:51:57;;;;;;;2.67;0.80;;;21.30;98.40;;;;;;5068120;28;20044;-69
2021/04/07 09:54:37;;;;;;;3.25;0.93;;;21.30;98.50;;;;;;5074179;28;20037;-69
2021/04/07 09:57:12;;;;;;;2.50;0.60;;;21.20;98.00;;;;;;5071937;28;20035;-70
2021/04/07 09:59:46;;;;;;;2.65;0.70;;;21.10;97.90;;;;;;5074475;28;20489;-70
2021/04/07 10:02:25;;;;;;;2.40;1.00;;;21.10;97.80;;;;;;5079115;28;20207;-71
2021/04/07 10:04:54;;;;;;;2.95;0.82;;;21.00;97.90;;;;;;5064563;28;20048;-68
2021/04/07 10:07:26;;;;;;;4.07;0.77;;;21.00;97.90;;;;;;5074557;28;20033;-68
2021/04/07 10:09:58;;;;;;;2.53;0.90;;;21.00;98.00;;;;;;5067972;28;20526;-68
2021/04/07 10:12:28;;;;;;;2.10;0.60;;;21.00;98.10;;;;;;5080215;28;20434;-69
2021/04/07 10:15:00;;;;;;;3.70;0.77;;;21.00;98.20;;;;;;5079238;28;20089;-69
2021/04/07 10:17:31;;;;;;;4.13;0.82;;;21.00;98.20;;;;;;5074917;28;20047;-69
2021/04/07 10:20:10;;;;;;;2.40;0.70;;;21.00;98.30;;;;;;5071484;28;20029;-70
2021/04/07 10:22:38;;;;;;;1.98;0.70;;;21.00;98.30;;;;;;5075375;28;20035;-69
2021/04/07 10:25:19;;;;;;;3.22;1.15;;;21.00;98.60;;;;;;5074446;28;20435;-70
2021/04/07 10:27:47;;;;;;;1.42;0.93;;;21.00;98.40;;;;;;5069582;28;20083;-70
2021/04/07 10:30:17;;;;;;;5.28;0.93;;;21.00;98.40;;;;;;5047732;28;20043;-70
2021/04/07 10:33:03;;;;;;;3.20;1.05;;;21.10;98.30;;;;;;5047232;28;20891;-72
2021/04/07 10:35:32;;;;;;;2.90;0.85;;;21.00;98.40;;;;;;5045653;28;20158;-72
2021/04/07 10:38:02;;;;;;;5.93;0.88;;;21.10;98.40;;;;;;5047166;28;20028;-71
2021/04/07 10:40:33;;;;;;;3.47;1.10;;;21.10;98.40;;;;;;5045351;28;20028;-69
2021/04/07 10:43:20;;;;;;;2.83;1.27;;;21.00;98.20;;;;;;5055773;28;20495;-70
2021/04/07 10:46:02;;;;;;;2.60;0.70;;;21.00;98.00;;;;;;5078777;28;20111;-72
2021/04/07 10:48:30;;;;;;;3.10;0.90;;;21.00;98.10;;;;;;5066789;28;20072;-70
2021/04/07 10:50:59;;;;;;;3.80;0.65;;;21.00;98.00;;;;;;5068124;28;20443;-71
2021/04/07 10:53:46;;;;;;;5.93;0.88;;;21.00;97.80;;;;;;5077386;28;20032;-71
2021/04/07 10:56:22;;;;;;;6.13;1.88;;;21.10;98.00;;;;;;5070556;28;20024;-70
2021/04/07 10:59:01;;;;;;;3.22;0.65;;;21.00;98.00;;;;;;5061626;28;20024;-69
2021/04/07 11:01:34;;;;;;;2.63;0.93;;;21.00;98.00;;;;;;5078469;28;20036;-69
2021/04/07 11:04:11;;;;;;;4.38;1.10;;;21.00;97.90;;;;;;5073037;28;20115;-69
2021/04/07 11:06:38;;;;;;;1.75;0.70;;;21.00;98.00;;;;;;5073510;28;20423;-68
2021/04/07 11:09:06;;;;;;;4.28;1.05;;;21.00;98.00;;;;;;5079435;28;20112;-69
2021/04/07 11:11:35;;;;;;;5.38;1.38;;;21.00;97.80;;;;;;5077944;28;20036;-69
2021/04/07 11:14:03;;;;;;;3.15;0.77;;;20.90;98.00;;;;;;5076740;28;20112;-69
2021/04/07 11:16:34;;;;;;;5.78;1.65;;;20.80;98.10;;;;;;5076598;28;20024;-71
2021/04/07 11:19:13;;;;;;;3.80;1.15;;;20.70;98.40;;;;;;5077498;28;20445;-69
2021/04/07 11:21:41;;;;;;;2.03;0.80;;;20.70;98.40;;;;;;5073176;28;20101;-70
2021/04/07 11:24:09;;;;;;;4.38;0.85;;;20.70;98.50;;;;;;5075929;28;20028;-70
2021/04/07 11:26:36;;;;;;;3.15;1.15;;;20.70;98.50;;;;;;5079643;28;20382;-70
2021/04/07 11:29:06;;;;;;;3.33;0.70;;;20.70;98.60;;;;;;5074637;28;20063;-70
2021/04/07 11:31:35;;;;;;;3.92;1.13;;;20.60;98.50;;;;;;5069581;28;20031;-70
2021/04/07 11:34:06;;;;;;;3.42;0.73;;;20.60;98.30;;;;;;5066285;28;20514;-71
2021/04/07 11:46:45;;;;;;;3.42;1.33;;;20.70;98.40;;;;;;5072661;28;20075;-68
2021/04/07 11:49:13;;;;;;;2.22;1.77;;;20.60;98.50;;;;;;5077861;28;20624;-71
2021/04/07 11:51:41;;;;;;;3.60;1.27;;;20.60;98.30;;;;;;5067668;28;20437;-71
2021/04/07 11:54:10;;;;;;;3.25;1.13;;;20.60;98.40;;;;;;5069247;28;20078;-72
2021/04/07 11:56:44;;;;;;;3.50;1.70;;;20.50;98.50;;;;;;5071669;28;20021;-71
2021/04/07 11:59:22;;;;;;;3.38;1.25;;;20.50;98.60;;;;;;5065099;28;20032;-71
2021/04/07 12:01:51;;;;;;;4.75;1.42;;;20.50;98.90;;;;;;5074977;28;20032;-73
2021/04/07 12:04:20;;;;;;;4.70;1.30;;;20.40;98.50;;;;;;5075390;28;20125;-72
2021/04/07 12:06:48;;;;;;;3.13;1.02;;;20.40;98.60;;;;;;5074153;28;20028;-68
2021/04/07 12:09:15;;;;;;;2.70;0.95;;;20.40;98.60;;;;;;5072772;28;20097;-72
2021/04/07 12:11:42;;;;;;;5.82;1.23;;;20.40;98.70;;;;;;5075253;28;20051;-69
2021/04/07 12:14:10;;;;;;;3.35;1.15;;;20.40;98.70;;;;;;5064559;28;20032;-71
2021/04/07 12:16:39;;;;;;;2.97;1.17;;;20.40;98.80;;;;;;5061897;28;20494;-69
2021/04/07 12:19:11;;;;;;;3.67;1.00;;;20.30;98.80;;;;;;5074011;28;20107;-70
2021/04/07 12:21:40;;;;;;;2.33;1.30;;;20.30;98.80;;;;;;5079431;28;20489;-70
2021/04/07 12:24:08;;;;;;;1.70;1.08;;;20.20;98.80;;;;;;5067427;28;20032;-73
2021/04/07 12:26:36;;;;;;;4.93;1.30;;;20.20;98.90;;;;;;5059650;28;20047;-71
2021/04/07 12:29:04;;;;;;;5.63;1.10;;;20.20;99.10;;;;;;5076372;28;20024;-70
2021/04/07 12:31:32;;;;;;;4.97;1.00;;;20.20;99.10;;;;;;5064907;28;20834;-70
2021/04/07 12:34:00;;;;;;;2.70;0.82;;;20.20;99.10;;;;;;5063844;28;20127;-70
2021/04/07 12:36:29;;;;;;;3.53;0.85;;;20.20;99.10;;;;;;5063564;28;20113;-70
2021/04/07 12:38:59;;;;;;;4.13;1.15;;;20.20;99.10;;;;;;5058492;28;20145;-70
2021/04/07 12:41:31;;;;;;;2.92;1.20;;;20.20;98.90;;;;;;5072476;28;20115;-70
2021/04/07 12:43:58;;;;;;;4.85;1.00;;;20.20;99.00;;;;;;5072931;28;20593;-70
2021/04/07 12:46:26;;;;;;;1.63;0.80;;;20.10;99.00;;;;;;5044086;28;20020;-72
2021/04/07 12:48:53;;;;;;;4.30;1.70;;;20.20;98.90;;;;;;5059361;28;20105;-70
2021/04/07 12:51:22;;;;;;;6.35;1.20;;;20.10;98.90;;;;;;5068313;28;20486;-72
2021/04/07 12:54:08;;;;;;;3.40;1.80;;;20.10;99.00;;;;;;5066041;28;20167;-70
2021/04/07 12:56:55;;;;;;;3.30;1.42;;;20.10;99.30;;;;;;5076768;28;20028;-72
2021/04/07 12:59:23;;;;;;;3.03;1.30;;;20.10;99.00;;;;;;5070314;28;20086;-70
2021/04/07 13:01:50;;;;;;;4.32;1.60;;;20.00;99.00;;;;;;5084844;28;20435;-70
2021/04/07 13:04:17;;;;;;;4.00;1.30;;;20.00;99.10;;;;;;5082012;28;20024;-70
2021/04/07 13:06:45;;;;;;;4.78;1.08;;;19.90;98.90;;;;;;5085935;28;20040;-69
2021/04/07 13:09:12;;;;;;;5.13;1.67;;;19.80;99.00;;;;;;5066586;28;20055;-70
2021/04/07 13:11:39;;;;;;;3.28;1.60;;;19.80;99.10;;;;;;5080229;28;20020;-70